WXM80 ListenWXM80 Stop

You find our weather info also at:

UK Metoffice

WeatherCloud

Weather Underground

Northeastern Weather Network

AWEKAS

Citizen Weather Observer Program (CWOP)

HAMweather, WeatherForYou, PWS Weather


Weather Underground History page Text

Daily Summary for February 13, 2017 Units:  Both    English   Metric
« Previous Day
Next Day »
Daily Weekly Monthly Yearly Custom
  High: Low: Average:
Temperature: 38.8 °F /  3.8 °C 29.6 °F /  -1.3 °C 35.4 °F /  1.9 °C
Dew Point: 35.7 °F /  2.1 °C 21.2 °F /  -6 °C 26.4 °F /  -3.1 °C
Humidity: 98 % 56 % 71 %
Wind Speed: 16.4 mph /  26.4 km/h - 8.3 mph /  13.4 km/h
Wind Gust: 36.0 mph /  57.9 km/h - -
Wind:- - WNW
Pressure: 29.94 in /  1013.8 hPa 29.52 in /  999.5 hPa -
Precipitation: 0.00 in /  0 mm    
Historical Graphs
 
 
Tabular Data for February 13, 2017
Time Temperature Dew Point Pressure Wind Wind Speed Wind Gust Humidity Rainfall Rate (Hourly)
00:04 33.0 °F /  0.6 °C 32.2 °F /  0.1 °C 29.55 in /  1000.6 hPa WNW 0.9 mph /  1.4 km/h 4.6 mph /  7.4 km/h 97 % 0.00 in /  0 mm
00:09 33.0 °F /  0.6 °C 32.2 °F /  0.1 °C 29.54 in /  1000.2 hPa WNW 0.6 mph /  1 km/h 3.5 mph /  5.6 km/h 97 % 0.00 in /  0 mm
00:14 32.9 °F /  0.5 °C 32.1 °F /  0.1 °C 29.54 in /  1000.2 hPa WSW 1.0 mph /  1.6 km/h 3.5 mph /  5.6 km/h 97 % 0.00 in /  0 mm
00:20 32.9 °F /  0.5 °C 32.1 °F /  0.1 °C 29.53 in /  999.9 hPa WSW 0.4 mph /  0.6 km/h 3.5 mph /  5.6 km/h 97 % 0.00 in /  0 mm
00:25 32.8 °F /  0.4 °C 32.0 °F /  0 °C 29.53 in /  999.9 hPa Calm     97 % 0.00 in /  0 mm
00:30 32.8 °F /  0.4 °C 32.0 °F /  0 °C 29.54 in /  1000.2 hPa West 3.2 mph /  5.1 km/h 4.6 mph /  7.4 km/h 97 % 0.00 in /  0 mm
00:35 32.8 °F /  0.4 °C 32.3 °F /  0.2 °C 29.55 in /  1000.6 hPa West 2.9 mph /  4.7 km/h 5.0 mph /  8 km/h 98 % 0.00 in /  0 mm
00:40 32.9 °F /  0.5 °C 32.1 °F /  0.1 °C 29.54 in /  1000.2 hPa SW 1.6 mph /  2.6 km/h 8.1 mph /  13 km/h 97 % 0.00 in /  0 mm
00:45 32.9 °F /  0.5 °C 32.1 °F /  0.1 °C 29.54 in /  1000.2 hPa SW 0.8 mph /  1.3 km/h 2.3 mph /  3.7 km/h 97 % 0.00 in /  0 mm
00:50 33.0 °F /  0.6 °C 32.5 °F /  0.3 °C 29.54 in /  1000.2 hPa WSW 1.2 mph /  1.9 km/h 2.0 mph /  3.2 km/h 98 % 0.00 in /  0 mm
00:55 33.0 °F /  0.6 °C 32.5 °F /  0.3 °C 29.53 in /  999.9 hPa SSW 1.0 mph /  1.6 km/h 2.3 mph /  3.7 km/h 98 % 0.00 in /  0 mm
01:00 33.0 °F /  0.6 °C 32.5 °F /  0.3 °C 29.53 in /  999.9 hPa WSW 1.9 mph /  3.1 km/h 4.0 mph /  6.4 km/h 98 % 0.00 in /  0 mm
01:05 33.2 °F /  0.7 °C 32.7 °F /  0.4 °C 29.53 in /  999.9 hPa SW 3.8 mph /  6.1 km/h 9.2 mph /  14.8 km/h 98 % 0.00 in /  0 mm
01:10 33.2 °F /  0.7 °C 32.7 °F /  0.4 °C 29.53 in /  999.9 hPa SSW 3.7 mph /  6 km/h 6.9 mph /  11.1 km/h 98 % 0.00 in /  0 mm
01:15 33.3 °F /  0.7 °C 32.8 °F /  0.4 °C 29.53 in /  999.9 hPa SW 3.7 mph /  6 km/h 5.8 mph /  9.3 km/h 98 % 0.00 in /  0 mm
01:20 33.3 °F /  0.7 °C 32.8 °F /  0.4 °C 29.53 in /  999.9 hPa WSW 1.7 mph /  2.7 km/h 3.5 mph /  5.6 km/h 98 % 0.00 in /  0 mm
01:25 33.4 °F /  0.8 °C 32.9 °F /  0.5 °C 29.53 in /  999.9 hPa WSW 3.9 mph /  6.3 km/h 8.1 mph /  13 km/h 98 % 0.00 in /  0 mm
01:30 33.6 °F /  0.9 °C 33.1 °F /  0.6 °C 29.53 in /  999.9 hPa WNW 2.5 mph /  4 km/h 3.5 mph /  5.6 km/h 98 % 0.00 in /  0 mm
01:35 33.7 °F /  0.9 °C 33.2 °F /  0.7 °C 29.53 in /  999.9 hPa WSW 0.7 mph /  1.1 km/h 3.5 mph /  5.6 km/h 98 % 0.00 in /  0 mm
01:40 33.7 °F /  0.9 °C 33.2 °F /  0.7 °C 29.53 in /  999.9 hPa WSW 0.1 mph /  0.2 km/h 1.2 mph /  1.9 km/h 98 % 0.00 in /  0 mm
01:45 33.8 °F /  1 °C 33.3 °F /  0.7 °C 29.52 in /  999.5 hPa WSW 0.6 mph /  1 km/h 1.2 mph /  1.9 km/h 98 % 0.00 in /  0 mm
01:50 33.8 °F /  1 °C 33.3 °F /  0.7 °C 29.53 in /  999.9 hPa SW 0.8 mph /  1.3 km/h 3.5 mph /  5.6 km/h 98 % 0.00 in /  0 mm
01:56 33.9 °F /  1.1 °C 33.4 °F /  0.8 °C 29.52 in /  999.5 hPa WSW 0.1 mph /  0.2 km/h 2.3 mph /  3.7 km/h 98 % 0.00 in /  0 mm
02:01 34.0 °F /  1.1 °C 33.5 °F /  0.8 °C 29.52 in /  999.5 hPa West 5.1 mph /  8.2 km/h 10.4 mph /  16.7 km/h 98 % 0.00 in /  0 mm
02:06 34.4 °F /  1.3 °C 33.9 °F /  1.1 °C 29.53 in /  999.9 hPa WNW 6.2 mph /  10 km/h 11.5 mph /  18.5 km/h 98 % 0.00 in /  0 mm
02:11 34.6 °F /  1.4 °C 34.1 °F /  1.2 °C 29.54 in /  1000.2 hPa NW 3.3 mph /  5.3 km/h 4.6 mph /  7.4 km/h 98 % 0.00 in /  0 mm
02:16 35.0 °F /  1.7 °C 34.5 °F /  1.4 °C 29.54 in /  1000.2 hPa NW 5.4 mph /  8.7 km/h 9.2 mph /  14.8 km/h 98 % 0.00 in /  0 mm
02:21 35.1 °F /  1.7 °C 34.6 °F /  1.4 °C 29.53 in /  999.9 hPa WNW 2.7 mph /  4.3 km/h 4.6 mph /  7.4 km/h 98 % 0.00 in /  0 mm
02:26 35.1 °F /  1.7 °C 34.6 °F /  1.4 °C 29.54 in /  1000.2 hPa NW 3.2 mph /  5.1 km/h 6.0 mph /  9.7 km/h 98 % 0.00 in /  0 mm
02:31 35.2 °F /  1.8 °C 34.7 °F /  1.5 °C 29.53 in /  999.9 hPa West 3.7 mph /  6 km/h 11.5 mph /  18.5 km/h 98 % 0.00 in /  0 mm
02:36 35.4 °F /  1.9 °C 34.9 °F /  1.6 °C 29.53 in /  999.9 hPa WNW 4.4 mph /  7.1 km/h 10.4 mph /  16.7 km/h 98 % 0.00 in /  0 mm
02:41 35.6 °F /  2 °C 35.1 °F /  1.7 °C 29.53 in /  999.9 hPa NW 6.9 mph /  11.1 km/h 11.5 mph /  18.5 km/h 98 % 0.00 in /  0 mm
02:46 35.8 °F /  2.1 °C 35.3 °F /  1.8 °C 29.53 in /  999.9 hPa West 7.0 mph /  11.3 km/h 10.4 mph /  16.7 km/h 98 % 0.00 in /  0 mm
02:51 35.9 °F /  2.2 °C 35.4 °F /  1.9 °C 29.53 in /  999.9 hPa NW 4.1 mph /  6.6 km/h 15.0 mph /  24.1 km/h 98 % 0.00 in /  0 mm
02:56 36.1 °F /  2.3 °C 35.6 °F /  2 °C 29.53 in /  999.9 hPa West 9.4 mph /  15.1 km/h 12.7 mph /  20.4 km/h 98 % 0.00 in /  0 mm
03:01 36.1 °F /  2.3 °C 35.6 °F /  2 °C 29.53 in /  999.9 hPa WNW 8.8 mph /  14.2 km/h 11.5 mph /  18.5 km/h 98 % 0.00 in /  0 mm
03:06 36.1 °F /  2.3 °C 35.6 °F /  2 °C 29.53 in /  999.9 hPa WSW 5.8 mph /  9.3 km/h 16.0 mph /  25.7 km/h 98 % 0.00 in /  0 mm
03:11 36.2 °F /  2.3 °C 35.7 °F /  2.1 °C 29.53 in /  999.9 hPa WSW 7.9 mph /  12.7 km/h 12.7 mph /  20.4 km/h 98 % 0.00 in /  0 mm
03:16 36.3 °F /  2.4 °C 35.5 °F /  1.9 °C 29.53 in /  999.9 hPa West 10.8 mph /  17.4 km/h 16.1 mph /  25.9 km/h 97 % 0.00 in /  0 mm
03:21 36.3 °F /  2.4 °C 35.5 °F /  1.9 °C 29.53 in /  999.9 hPa WNW 8.8 mph /  14.2 km/h 13.8 mph /  22.2 km/h 97 % 0.00 in /  0 mm
03:26 36.3 °F /  2.4 °C 35.5 °F /  1.9 °C 29.54 in /  1000.2 hPa West 9.3 mph /  15 km/h 18.4 mph /  29.6 km/h 97 % 0.00 in /  0 mm
03:31 36.4 °F /  2.4 °C 35.6 °F /  2 °C 29.54 in /  1000.2 hPa West 10.0 mph /  16.1 km/h 18.0 mph /  29 km/h 97 % 0.00 in /  0 mm
03:36 36.3 °F /  2.4 °C 35.3 °F /  1.8 °C 29.53 in /  999.9 hPa West 16.4 mph /  26.4 km/h 26.5 mph /  42.6 km/h 96 % 0.00 in /  0 mm
03:41 36.3 °F /  2.4 °C 34.7 °F /  1.5 °C 29.55 in /  1000.6 hPa West 10.7 mph /  17.2 km/h 18.4 mph /  29.6 km/h 94 % 0.00 in /  0 mm
03:46 36.3 °F /  2.4 °C 34.5 °F /  1.4 °C 29.55 in /  1000.6 hPa NW 7.0 mph /  11.3 km/h 7.0 mph /  11.3 km/h 93 % 0.00 in /  0 mm
03:51 36.3 °F /  2.4 °C 33.9 °F /  1.1 °C 29.55 in /  1000.6 hPa NW 11.9 mph /  19.2 km/h 20.7 mph /  33.3 km/h 91 % 0.00 in /  0 mm
03:52 36.3 °F /  2.4 °C 33.9 °F /  1.1 °C 29.55 in /  1000.6 hPa SW 10.2 mph /  16.4 km/h 19.6 mph /  31.5 km/h 91 % 0.00 in /  0 mm
03:57 36.3 °F /  2.4 °C 33.4 °F /  0.8 °C 29.55 in /  1000.6 hPa WSW 9.4 mph /  15.1 km/h 15.0 mph /  24.1 km/h 89 % 0.00 in /  0 mm
04:02 36.4 °F /  2.4 °C 33.2 °F /  0.7 °C 29.55 in /  1000.6 hPa West 9.6 mph /  15.4 km/h 22.0 mph /  35.4 km/h 88 % 0.00 in /  0 mm
04:07 36.4 °F /  2.4 °C 32.6 °F /  0.3 °C 29.56 in /  1000.9 hPa NW 5.7 mph /  9.2 km/h 15.0 mph /  24.1 km/h 86 % 0.00 in /  0 mm
04:12 36.5 °F /  2.5 °C 32.1 °F /  0.1 °C 29.56 in /  1000.9 hPa NW 11.7 mph /  18.8 km/h 16.1 mph /  25.9 km/h 84 % 0.00 in /  0 mm
04:17 36.5 °F /  2.5 °C 31.8 °F /  -0.1 °C 29.56 in /  1000.9 hPa WNW 10.3 mph /  16.6 km/h 11.5 mph /  18.5 km/h 83 % 0.00 in /  0 mm
04:22 36.6 °F /  2.6 °C 31.6 °F /  -0.2 °C 29.56 in /  1000.9 hPa West 10.3 mph /  16.6 km/h 18.4 mph /  29.6 km/h 82 % 0.00 in /  0 mm
04:27 36.6 °F /  2.6 °C 31.3 °F /  -0.4 °C 29.57 in /  1001.2 hPa WSW 9.2 mph /  14.8 km/h 17.3 mph /  27.8 km/h 81 % 0.00 in /  0 mm
04:32 36.6 °F /  2.6 °C 31.3 °F /  -0.4 °C 29.57 in /  1001.2 hPa West 10.8 mph /  17.4 km/h 21.9 mph /  35.2 km/h 81 % 0.00 in /  0 mm
04:37 36.5 °F /  2.5 °C 30.6 °F /  -0.8 °C 29.57 in /  1001.2 hPa NW 13.2 mph /  21.2 km/h 18.4 mph /  29.6 km/h 79 % 0.00 in /  0 mm
04:42 36.5 °F /  2.5 °C 30.6 °F /  -0.8 °C 29.57 in /  1001.2 hPa WNW 10.2 mph /  16.4 km/h 19.0 mph /  30.6 km/h 79 % 0.00 in /  0 mm
04:48 36.5 °F /  2.5 °C 30.0 °F /  -1.1 °C 29.57 in /  1001.2 hPa NW 7.8 mph /  12.6 km/h 17.3 mph /  27.8 km/h 77 % 0.00 in /  0 mm
04:53 36.5 °F /  2.5 °C 30.0 °F /  -1.1 °C 29.57 in /  1001.2 hPa WSW 14.5 mph /  23.3 km/h 21.9 mph /  35.2 km/h 77 % 0.00 in /  0 mm
04:58 36.5 °F /  2.5 °C 30.0 °F /  -1.1 °C 29.58 in /  1001.6 hPa West 7.8 mph /  12.6 km/h 17.3 mph /  27.8 km/h 77 % 0.00 in /  0 mm
05:03 36.4 °F /  2.4 °C 29.9 °F /  -1.2 °C 29.57 in /  1001.2 hPa WSW 12.0 mph /  19.3 km/h 24.0 mph /  38.6 km/h 77 % 0.00 in /  0 mm
05:08 36.4 °F /  2.4 °C 29.6 °F /  -1.3 °C 29.57 in /  1001.2 hPa SW 9.6 mph /  15.4 km/h 15.0 mph /  24.1 km/h 76 % 0.00 in /  0 mm
05:13 36.2 °F /  2.3 °C 29.0 °F /  -1.7 °C 29.57 in /  1001.2 hPa West 9.9 mph /  15.9 km/h 24.2 mph /  38.9 km/h 75 % 0.00 in /  0 mm
05:18 36.1 °F /  2.3 °C 28.6 °F /  -1.9 °C 29.58 in /  1001.6 hPa SSW 9.3 mph /  15 km/h 19.6 mph /  31.5 km/h 74 % 0.00 in /  0 mm
05:23 35.9 °F /  2.2 °C 28.7 °F /  -1.8 °C 29.57 in /  1001.2 hPa West 13.4 mph /  21.6 km/h 26.5 mph /  42.6 km/h 75 % 0.00 in /  0 mm
05:28 35.9 °F /  2.2 °C 28.4 °F /  -2 °C 29.57 in /  1001.2 hPa West 13.0 mph /  20.9 km/h 36.0 mph /  57.9 km/h 74 % 0.00 in /  0 mm
05:33 35.8 °F /  2.1 °C 28.0 °F /  -2.2 °C 29.58 in /  1001.6 hPa West 15.0 mph /  24.1 km/h 33.0 mph /  53.1 km/h 73 % 0.00 in /  0 mm
05:38 35.7 °F /  2.1 °C 27.9 °F /  -2.3 °C 29.57 in /  1001.2 hPa West 12.0 mph /  19.3 km/h 23.0 mph /  37 km/h 73 % 0.00 in /  0 mm
05:43 35.6 °F /  2 °C 27.1 °F /  -2.7 °C 29.57 in /  1001.2 hPa West 13.0 mph /  20.9 km/h 29.0 mph /  46.7 km/h 71 % 0.00 in /  0 mm
05:48 35.6 °F /  2 °C 27.1 °F /  -2.7 °C 29.57 in /  1001.2 hPa West 13.0 mph /  20.9 km/h 28.0 mph /  45.1 km/h 71 % 0.00 in /  0 mm
05:53 35.5 °F /  1.9 °C 27.0 °F /  -2.8 °C 29.57 in /  1001.2 hPa WNW 15.0 mph /  24.1 km/h 30.0 mph /  48.3 km/h 71 % 0.00 in /  0 mm
05:58 35.5 °F /  1.9 °C 27.4 °F /  -2.6 °C 29.58 in /  1001.6 hPa WSW 5.5 mph /  8.9 km/h 18.4 mph /  29.6 km/h 72 % 0.00 in /  0 mm
06:03 35.5 °F /  1.9 °C 28.0 °F /  -2.2 °C 29.57 in /  1001.2 hPa WNW 11.1 mph /  17.9 km/h 19.0 mph /  30.6 km/h 74 % 0.00 in /  0 mm
06:08 35.5 °F /  1.9 °C 28.0 °F /  -2.2 °C 29.58 in /  1001.6 hPa West 10.0 mph /  16.1 km/h 27.0 mph /  43.5 km/h 74 % 0.00 in /  0 mm
06:13 35.5 °F /  1.9 °C 28.0 °F /  -2.2 °C 29.58 in /  1001.6 hPa West 12.0 mph /  19.3 km/h 21.0 mph /  33.8 km/h 74 % 0.00 in /  0 mm
06:18 35.5 °F /  1.9 °C 28.0 °F /  -2.2 °C 29.57 in /  1001.2 hPa WNW 8.3 mph /  13.4 km/h 17.3 mph /  27.8 km/h 74 % 0.00 in /  0 mm
06:23 35.5 °F /  1.9 °C 28.0 °F /  -2.2 °C 29.58 in /  1001.6 hPa WNW 11.2 mph /  18 km/h 26.5 mph /  42.6 km/h 74 % 0.00 in /  0 mm
06:28 35.5 °F /  1.9 °C 28.0 °F /  -2.2 °C 29.58 in /  1001.6 hPa West 14.0 mph /  22.5 km/h 26.0 mph /  41.8 km/h 74 % 0.00 in /  0 mm
06:33 34.9 °F /  1.6 °C 27.1 °F /  -2.7 °C 29.59 in /  1001.9 hPa West 8.4 mph /  13.5 km/h 20.0 mph /  32.2 km/h 73 % 0.00 in /  0 mm
06:38 34.8 °F /  1.6 °C 27.0 °F /  -2.8 °C 29.60 in /  1002.3 hPa West 10.0 mph /  16.1 km/h 17.0 mph /  27.4 km/h 73 % 0.00 in /  0 mm
06:43 34.8 °F /  1.6 °C 27.0 °F /  -2.8 °C 29.60 in /  1002.3 hPa WNW 10.0 mph /  16.1 km/h 24.0 mph /  38.6 km/h 73 % 0.00 in /  0 mm
06:48 34.7 °F /  1.5 °C 26.9 °F /  -2.8 °C 29.60 in /  1002.3 hPa WNW 10.0 mph /  16.1 km/h 20.0 mph /  32.2 km/h 73 % 0.00 in /  0 mm
06:53 34.6 °F /  1.4 °C 26.5 °F /  -3.1 °C 29.60 in /  1002.3 hPa NW 12.0 mph /  19.3 km/h 23.0 mph /  37 km/h 72 % 0.00 in /  0 mm
06:58 34.6 °F /  1.4 °C 26.8 °F /  -2.9 °C 29.61 in /  1002.6 hPa WSW 10.0 mph /  16.1 km/h 11.5 mph /  18.5 km/h 73 % 0.00 in /  0 mm
07:03 34.6 °F /  1.4 °C 26.8 °F /  -2.9 °C 29.61 in /  1002.6 hPa West 10.0 mph /  16.1 km/h 23.0 mph /  37 km/h 73 % 0.00 in /  0 mm
07:08 34.6 °F /  1.4 °C 26.5 °F /  -3.1 °C 29.61 in /  1002.6 hPa SW 9.1 mph /  14.6 km/h 20.7 mph /  33.3 km/h 72 % 0.00 in /  0 mm
07:13 34.7 °F /  1.5 °C 26.9 °F /  -2.8 °C 29.61 in /  1002.6 hPa West 8.0 mph /  12.9 km/h 17.0 mph /  27.4 km/h 73 % 0.00 in /  0 mm
07:18 34.7 °F /  1.5 °C 26.6 °F /  -3 °C 29.62 in /  1002.9 hPa WNW 9.0 mph /  14.5 km/h 21.0 mph /  33.8 km/h 72 % 0.00 in /  0 mm
07:23 34.8 °F /  1.6 °C 26.7 °F /  -2.9 °C 29.62 in /  1002.9 hPa WNW 9.0 mph /  14.5 km/h 23.0 mph /  37 km/h 72 % 0.00 in /  0 mm
07:28 34.8 °F /  1.6 °C 26.7 °F /  -2.9 °C 29.62 in /  1002.9 hPa NW 12.0 mph /  19.3 km/h 23.0 mph /  37 km/h 72 % 0.00 in /  0 mm
07:33 34.9 °F /  1.6 °C 26.8 °F /  -2.9 °C 29.62 in /  1002.9 hPa WNW 13.0 mph /  20.9 km/h 35.0 mph /  56.3 km/h 72 % 0.00 in /  0 mm
07:38 35.0 °F /  1.7 °C 26.5 °F /  -3.1 °C 29.62 in /  1002.9 hPa WNW 10.0 mph /  16.1 km/h 26.0 mph /  41.8 km/h 71 % 0.00 in /  0 mm
07:43 35.0 °F /  1.7 °C 26.9 °F /  -2.8 °C 29.62 in /  1002.9 hPa WNW 14.0 mph /  22.5 km/h 25.0 mph /  40.2 km/h 72 % 0.00 in /  0 mm
07:48 35.0 °F /  1.7 °C 26.5 °F /  -3.1 °C 29.63 in /  1003.3 hPa West 9.0 mph /  14.5 km/h 21.0 mph /  33.8 km/h 71 % 0.00 in /  0 mm
07:53 35.0 °F /  1.7 °C 26.5 °F /  -3.1 °C 29.63 in /  1003.3 hPa West 10.0 mph /  16.1 km/h 20.0 mph /  32.2 km/h 71 % 0.00 in /  0 mm
07:58 35.0 °F /  1.7 °C 26.5 °F /  -3.1 °C 29.63 in /  1003.3 hPa WSW 12.2 mph /  19.6 km/h 18.4 mph /  29.6 km/h 71 % 0.00 in /  0 mm
08:03 35.1 °F /  1.7 °C 26.6 °F /  -3 °C 29.62 in /  1002.9 hPa WNW 11.2 mph /  18 km/h 16.1 mph /  25.9 km/h 71 % 0.00 in /  0 mm
08:08 35.2 °F /  1.8 °C 26.7 °F /  -2.9 °C 29.62 in /  1002.9 hPa WNW 13.0 mph /  20.9 km/h 24.0 mph /  38.6 km/h 71 % 0.00 in /  0 mm
08:13 35.4 °F /  1.9 °C 26.6 °F /  -3 °C 29.63 in /  1003.3 hPa West 13.0 mph /  20.9 km/h 28.0 mph /  45.1 km/h 70 % 0.00 in /  0 mm
08:18 35.7 °F /  2.1 °C 26.9 °F /  -2.8 °C 29.63 in /  1003.3 hPa WNW 11.4 mph /  18.3 km/h 26.5 mph /  42.6 km/h 70 % 0.00 in /  0 mm
08:23 35.7 °F /  2.1 °C 26.9 °F /  -2.8 °C 29.63 in /  1003.3 hPa WSW 9.3 mph /  15 km/h 26.5 mph /  42.6 km/h 70 % 0.00 in /  0 mm
08:28 35.7 °F /  2.1 °C 26.9 °F /  -2.8 °C 29.64 in /  1003.6 hPa WNW 13.0 mph /  20.9 km/h 22.0 mph /  35.4 km/h 70 % 0.00 in /  0 mm
08:33 35.6 °F /  2 °C 26.8 °F /  -2.9 °C 29.64 in /  1003.6 hPa West 12.0 mph /  19.3 km/h 24.0 mph /  38.6 km/h 70 % 0.00 in /  0 mm
08:38 35.5 °F /  1.9 °C 26.7 °F /  -2.9 °C 29.64 in /  1003.6 hPa WNW 8.5 mph /  13.7 km/h 15.0 mph /  24.1 km/h 70 % 0.00 in /  0 mm
08:43 35.5 °F /  1.9 °C 26.7 °F /  -2.9 °C 29.64 in /  1003.6 hPa WNW 9.7 mph /  15.6 km/h 16.1 mph /  25.9 km/h 70 % 0.00 in /  0 mm
08:48 35.6 °F /  2 °C 27.5 °F /  -2.5 °C 29.64 in /  1003.6 hPa West 10.0 mph /  16.1 km/h 20.0 mph /  32.2 km/h 72 % 0.00 in /  0 mm
08:53 35.8 °F /  2.1 °C 27.3 °F /  -2.6 °C 29.65 in /  1003.9 hPa WNW 10.0 mph /  16.1 km/h 21.0 mph /  33.8 km/h 71 % 0.00 in /  0 mm
08:58 35.9 °F /  2.2 °C 27.4 °F /  -2.6 °C 29.65 in /  1003.9 hPa West 9.0 mph /  14.5 km/h 19.6 mph /  31.5 km/h 71 % 0.00 in /  0 mm
09:03 36.0 °F /  2.2 °C 27.5 °F /  -2.5 °C 29.66 in /  1004.3 hPa WNW 8.0 mph /  12.9 km/h 17.3 mph /  27.8 km/h 71 % 0.00 in /  0 mm
09:08 36.1 °F /  2.3 °C 27.6 °F /  -2.4 °C 29.66 in /  1004.3 hPa West 14.3 mph /  23 km/h 19.6 mph /  31.5 km/h 71 % 0.00 in /  0 mm
09:13 36.2 °F /  2.3 °C 27.4 °F /  -2.6 °C 29.66 in /  1004.3 hPa WNW 10.1 mph /  16.3 km/h 19.6 mph /  31.5 km/h 70 % 0.00 in /  0 mm
09:18 36.5 °F /  2.5 °C 27.6 °F /  -2.4 °C 29.66 in /  1004.3 hPa West 9.5 mph /  15.3 km/h 15.0 mph /  24.1 km/h 70 % 0.00 in /  0 mm
09:23 36.6 °F /  2.6 °C 27.4 °F /  -2.6 °C 29.66 in /  1004.3 hPa WNW 9.5 mph /  15.3 km/h 23.0 mph /  37 km/h 69 % 0.00 in /  0 mm
09:29 36.7 °F /  2.6 °C 27.5 °F /  -2.5 °C 29.67 in /  1004.6 hPa NW 6.4 mph /  10.3 km/h 19.6 mph /  31.5 km/h 69 % 0.00 in /  0 mm
09:34 36.9 °F /  2.7 °C 27.3 °F /  -2.6 °C 29.66 in /  1004.3 hPa West 8.0 mph /  12.9 km/h 10.4 mph /  16.7 km/h 68 % 0.00 in /  0 mm
09:39 36.8 °F /  2.7 °C 26.1 °F /  -3.3 °C 29.67 in /  1004.6 hPa West 11.1 mph /  17.9 km/h 18.4 mph /  29.6 km/h 65 % 0.00 in /  0 mm
09:44 36.9 °F /  2.7 °C 26.6 °F /  -3 °C 29.67 in /  1004.6 hPa West 10.9 mph /  17.5 km/h 21.9 mph /  35.2 km/h 66 % 0.00 in /  0 mm
09:49 37.1 °F /  2.8 °C 26.4 °F /  -3.1 °C 29.68 in /  1005 hPa NNW 10.5 mph /  16.9 km/h 22.0 mph /  35.4 km/h 65 % 0.00 in /  0 mm
09:54 37.3 °F /  2.9 °C 26.6 °F /  -3 °C 29.68 in /  1005 hPa NW 12.5 mph /  20.1 km/h 25.3 mph /  40.7 km/h 65 % 0.00 in /  0 mm
09:59 37.5 °F /  3.1 °C 26.8 °F /  -2.9 °C 29.68 in /  1005 hPa NNW 7.9 mph /  12.7 km/h 20.7 mph /  33.3 km/h 65 % 0.00 in /  0 mm
10:04 37.9 °F /  3.3 °C 26.8 °F /  -2.9 °C 29.68 in /  1005 hPa WNW 9.0 mph /  14.5 km/h 17.3 mph /  27.8 km/h 64 % 0.00 in /  0 mm
10:09 38.1 °F /  3.4 °C 25.4 °F /  -3.7 °C 29.68 in /  1005 hPa WNW 13.7 mph /  22 km/h 21.9 mph /  35.2 km/h 60 % 0.00 in /  0 mm
10:14 38.2 °F /  3.4 °C 25.5 °F /  -3.6 °C 29.69 in /  1005.3 hPa NW 8.6 mph /  13.8 km/h 12.7 mph /  20.4 km/h 60 % 0.00 in /  0 mm
10:19 38.4 °F /  3.6 °C 25.7 °F /  -3.5 °C 29.69 in /  1005.3 hPa NW 9.3 mph /  15 km/h 20.7 mph /  33.3 km/h 60 % 0.00 in /  0 mm
10:24 38.6 °F /  3.7 °C 25.5 °F /  -3.6 °C 29.69 in /  1005.3 hPa NW 9.2 mph /  14.8 km/h 19.6 mph /  31.5 km/h 59 % 0.00 in /  0 mm
10:29 38.4 °F /  3.6 °C 24.9 °F /  -3.9 °C 29.69 in /  1005.3 hPa NNW 8.0 mph /  12.9 km/h 18.4 mph /  29.6 km/h 58 % 0.00 in /  0 mm
10:34 38.6 °F /  3.7 °C 25.9 °F /  -3.4 °C 29.69 in /  1005.3 hPa NW 14.3 mph /  23 km/h 17.3 mph /  27.8 km/h 60 % 0.00 in /  0 mm
10:39 38.2 °F /  3.4 °C 24.3 °F /  -4.3 °C 29.69 in /  1005.3 hPa NW 13.3 mph /  21.4 km/h 23.0 mph /  37 km/h 57 % 0.00 in /  0 mm
10:44 37.8 °F /  3.2 °C 24.3 °F /  -4.3 °C 29.69 in /  1005.3 hPa NW 11.4 mph /  18.3 km/h 21.9 mph /  35.2 km/h 58 % 0.00 in /  0 mm
10:49 37.7 °F /  3.2 °C 25.1 °F /  -3.8 °C 29.70 in /  1005.6 hPa NW 8.8 mph /  14.2 km/h 17.3 mph /  27.8 km/h 60 % 0.00 in /  0 mm
10:54 37.7 °F /  3.2 °C 24.6 °F /  -4.1 °C 29.70 in /  1005.6 hPa NW 9.7 mph /  15.6 km/h 18.4 mph /  29.6 km/h 59 % 0.00 in /  0 mm
10:59 37.6 °F /  3.1 °C 25.0 °F /  -3.9 °C 29.70 in /  1005.6 hPa NW 10.1 mph /  16.3 km/h 24.2 mph /  38.9 km/h 60 % 0.00 in /  0 mm
11:04 37.6 °F /  3.1 °C 25.4 °F /  -3.7 °C 29.70 in /  1005.6 hPa NNW 9.5 mph /  15.3 km/h 16.1 mph /  25.9 km/h 61 % 0.00 in /  0 mm
11:09 37.4 °F /  3 °C 24.4 °F /  -4.2 °C 29.70 in /  1005.6 hPa NW 12.4 mph /  20 km/h 19.6 mph /  31.5 km/h 59 % 0.00 in /  0 mm
11:14 37.2 °F /  2.9 °C 24.6 °F /  -4.1 °C 29.70 in /  1005.6 hPa NNE 10.6 mph /  17.1 km/h 20.7 mph /  33.3 km/h 60 % 0.00 in /  0 mm
11:19 37.1 °F /  2.8 °C 24.9 °F /  -3.9 °C 29.70 in /  1005.6 hPa NW 11.0 mph /  17.7 km/h 16.1 mph /  25.9 km/h 61 % 0.00 in /  0 mm
11:25 37.2 °F /  2.9 °C 24.6 °F /  -4.1 °C 29.70 in /  1005.6 hPa NW 12.0 mph /  19.3 km/h 19.6 mph /  31.5 km/h 60 % 0.00 in /  0 mm
11:29 37.3 °F /  2.9 °C 24.7 °F /  -4.1 °C 29.70 in /  1005.6 hPa NW 7.5 mph /  12.1 km/h 19.6 mph /  31.5 km/h 60 % 0.00 in /  0 mm
11:35 37.3 °F /  2.9 °C 25.1 °F /  -3.8 °C 29.70 in /  1005.6 hPa NW 11.1 mph /  17.9 km/h 17.3 mph /  27.8 km/h 61 % 0.00 in /  0 mm
11:40 37.2 °F /  2.9 °C 24.2 °F /  -4.3 °C 29.71 in /  1006 hPa NW 10.7 mph /  17.2 km/h 16.1 mph /  25.9 km/h 59 % 0.00 in /  0 mm
11:45 37.2 °F /  2.9 °C 24.2 °F /  -4.3 °C 29.71 in /  1006 hPa WNW 12.9 mph /  20.8 km/h 24.0 mph /  38.6 km/h 59 % 0.00 in /  0 mm
11:50 37.2 °F /  2.9 °C 24.6 °F /  -4.1 °C 29.70 in /  1005.6 hPa WNW 7.4 mph /  11.9 km/h 15.0 mph /  24.1 km/h 60 % 0.00 in /  0 mm
11:55 37.5 °F /  3.1 °C 25.3 °F /  -3.7 °C 29.70 in /  1005.6 hPa NW 7.9 mph /  12.7 km/h 16.0 mph /  25.7 km/h 61 % 0.00 in /  0 mm
12:00 37.7 °F /  3.2 °C 24.6 °F /  -4.1 °C 29.70 in /  1005.6 hPa NNW 9.7 mph /  15.6 km/h 14.0 mph /  22.5 km/h 59 % 0.00 in /  0 mm
12:05 37.8 °F /  3.2 °C 24.3 °F /  -4.3 °C 29.70 in /  1005.6 hPa North 11.6 mph /  18.7 km/h 19.6 mph /  31.5 km/h 58 % 0.00 in /  0 mm
12:10 37.8 °F /  3.2 °C 24.7 °F /  -4.1 °C 29.70 in /  1005.6 hPa NW 9.4 mph /  15.1 km/h 20.7 mph /  33.3 km/h 59 % 0.00 in /  0 mm
12:15 37.9 °F /  3.3 °C 24.4 °F /  -4.2 °C 29.70 in /  1005.6 hPa WNW 15.6 mph /  25.1 km/h 20.0 mph /  32.2 km/h 58 % 0.00 in /  0 mm
12:20 38.0 °F /  3.3 °C 24.5 °F /  -4.2 °C 29.70 in /  1005.6 hPa WNW 11.9 mph /  19.2 km/h 21.9 mph /  35.2 km/h 58 % 0.00 in /  0 mm
12:25 38.2 °F /  3.4 °C 24.7 °F /  -4.1 °C 29.70 in /  1005.6 hPa West 9.5 mph /  15.3 km/h 17.3 mph /  27.8 km/h 58 % 0.00 in /  0 mm
12:30 38.3 °F /  3.5 °C 24.0 °F /  -4.4 °C 29.70 in /  1005.6 hPa NNW 14.3 mph /  23 km/h 26.5 mph /  42.6 km/h 56 % 0.00 in /  0 mm
12:35 38.3 °F /  3.5 °C 24.8 °F /  -4 °C 29.70 in /  1005.6 hPa WNW 11.0 mph /  17.7 km/h 20.7 mph /  33.3 km/h 58 % 0.00 in /  0 mm
12:40 38.2 °F /  3.4 °C 24.7 °F /  -4.1 °C 29.70 in /  1005.6 hPa West 11.0 mph /  17.7 km/h 25.3 mph /  40.7 km/h 58 % 0.00 in /  0 mm
12:45 38.0 °F /  3.3 °C 24.5 °F /  -4.2 °C 29.71 in /  1006 hPa WNW 13.7 mph /  22 km/h 23.0 mph /  37 km/h 58 % 0.00 in /  0 mm
12:50 37.8 °F /  3.2 °C 24.3 °F /  -4.3 °C 29.70 in /  1005.6 hPa NNW 8.9 mph /  14.3 km/h 17.3 mph /  27.8 km/h 58 % 0.00 in /  0 mm
12:55 37.7 °F /  3.2 °C 25.1 °F /  -3.8 °C 29.70 in /  1005.6 hPa NW 6.3 mph /  10.1 km/h 15.0 mph /  24.1 km/h 60 % 0.00 in /  0 mm
13:00 37.8 °F /  3.2 °C 24.3 °F /  -4.3 °C 29.71 in /  1006 hPa WNW 11.9 mph /  19.2 km/h 18.4 mph /  29.6 km/h 58 % 0.00 in /  0 mm
13:05 37.9 °F /  3.3 °C 24.0 °F /  -4.4 °C 29.71 in /  1006 hPa SW 11.3 mph /  18.2 km/h 19.6 mph /  31.5 km/h 57 % 0.00 in /  0 mm
13:10 38.0 °F /  3.3 °C 24.5 °F /  -4.2 °C 29.71 in /  1006 hPa NW 15.2 mph /  24.5 km/h 25.3 mph /  40.7 km/h 58 % 0.00 in /  0 mm
13:15 38.3 °F /  3.5 °C 24.8 °F /  -4 °C 29.71 in /  1006 hPa NW 12.3 mph /  19.8 km/h 19.6 mph /  31.5 km/h 58 % 0.00 in /  0 mm
13:21 38.5 °F /  3.6 °C 25.0 °F /  -3.9 °C 29.71 in /  1006 hPa WNW 10.4 mph /  16.7 km/h 19.6 mph /  31.5 km/h 58 % 0.00 in /  0 mm
13:25 38.4 °F /  3.6 °C 24.5 °F /  -4.2 °C 29.71 in /  1006 hPa NW 13.5 mph /  21.7 km/h 20.7 mph /  33.3 km/h 57 % 0.00 in /  0 mm
13:31 38.3 °F /  3.5 °C 24.4 °F /  -4.2 °C 29.72 in /  1006.3 hPa NNW 15.4 mph /  24.8 km/h 25.3 mph /  40.7 km/h 57 % 0.00 in /  0 mm
13:36 38.2 °F /  3.4 °C 23.9 °F /  -4.5 °C 29.72 in /  1006.3 hPa WNW 9.8 mph /  15.8 km/h 18.4 mph /  29.6 km/h 56 % 0.00 in /  0 mm
13:41 38.2 °F /  3.4 °C 25.1 °F /  -3.8 °C 29.72 in /  1006.3 hPa West 10.5 mph /  16.9 km/h 17.3 mph /  27.8 km/h 59 % 0.00 in /  0 mm
13:46 38.3 °F /  3.5 °C 24.8 °F /  -4 °C 29.72 in /  1006.3 hPa West 10.8 mph /  17.4 km/h 26.5 mph /  42.6 km/h 58 % 0.00 in /  0 mm
13:51 38.4 °F /  3.6 °C 24.9 °F /  -3.9 °C 29.73 in /  1006.7 hPa West 8.2 mph /  13.2 km/h 17.0 mph /  27.4 km/h 58 % 0.00 in /  0 mm
13:56 38.4 °F /  3.6 °C 24.9 °F /  -3.9 °C 29.73 in /  1006.7 hPa WNW 13.2 mph /  21.2 km/h 20.0 mph /  32.2 km/h 58 % 0.00 in /  0 mm
14:01 38.5 °F /  3.6 °C 25.0 °F /  -3.9 °C 29.73 in /  1006.7 hPa North 9.1 mph /  14.6 km/h 16.1 mph /  25.9 km/h 58 % 0.00 in /  0 mm
14:06 38.6 °F /  3.7 °C 25.1 °F /  -3.8 °C 29.73 in /  1006.7 hPa NNW 10.0 mph /  16.1 km/h 19.6 mph /  31.5 km/h 58 % 0.00 in /  0 mm
14:11 38.7 °F /  3.7 °C 25.2 °F /  -3.8 °C 29.74 in /  1007 hPa NW 11.1 mph /  17.9 km/h 13.8 mph /  22.2 km/h 58 % 0.00 in /  0 mm
14:16 38.6 °F /  3.7 °C 25.1 °F /  -3.8 °C 29.74 in /  1007 hPa North 6.6 mph /  10.6 km/h 16.1 mph /  25.9 km/h 58 % 0.00 in /  0 mm
14:21 38.7 °F /  3.7 °C 25.2 °F /  -3.8 °C 29.74 in /  1007 hPa West 11.3 mph /  18.2 km/h 19.6 mph /  31.5 km/h 58 % 0.00 in /  0 mm
14:26 38.7 °F /  3.7 °C 24.8 °F /  -4 °C 29.74 in /  1007 hPa NW 10.5 mph /  16.9 km/h 19.0 mph /  30.6 km/h 57 % 0.00 in /  0 mm
14:31 38.8 °F /  3.8 °C 25.3 °F /  -3.7 °C 29.74 in /  1007 hPa NW 11.6 mph /  18.7 km/h 25.3 mph /  40.7 km/h 58 % 0.00 in /  0 mm
14:36 38.8 °F /  3.8 °C 25.3 °F /  -3.7 °C 29.73 in /  1006.7 hPa North 11.7 mph /  18.8 km/h 18.4 mph /  29.6 km/h 58 % 0.00 in /  0 mm
14:41 38.8 °F /  3.8 °C 25.3 °F /  -3.7 °C 29.74 in /  1007 hPa West 11.7 mph /  18.8 km/h 16.1 mph /  25.9 km/h 58 % 0.00 in /  0 mm
14:46 38.6 °F /  3.7 °C 25.5 °F /  -3.6 °C 29.74 in /  1007 hPa WNW 8.0 mph /  12.9 km/h 26.5 mph /  42.6 km/h 59 % 0.00 in /  0 mm
14:51 38.5 °F /  3.6 °C 25.4 °F /  -3.7 °C 29.74 in /  1007 hPa North 11.9 mph /  19.2 km/h 19.6 mph /  31.5 km/h 59 % 0.00 in /  0 mm
14:56 38.4 °F /  3.6 °C 25.3 °F /  -3.7 °C 29.74 in /  1007 hPa NNW 8.8 mph /  14.2 km/h 19.6 mph /  31.5 km/h 59 % 0.00 in /  0 mm
15:01 38.2 °F /  3.4 °C 25.1 °F /  -3.8 °C 29.74 in /  1007 hPa North 8.3 mph /  13.4 km/h 26.5 mph /  42.6 km/h 59 % 0.00 in /  0 mm
15:06 38.2 °F /  3.4 °C 25.1 °F /  -3.8 °C 29.75 in /  1007.3 hPa NNW 9.9 mph /  15.9 km/h 17.3 mph /  27.8 km/h 59 % 0.00 in /  0 mm
15:11 38.1 °F /  3.4 °C 25.0 °F /  -3.9 °C 29.75 in /  1007.3 hPa North 10.9 mph /  17.5 km/h 20.0 mph /  32.2 km/h 59 % 0.00 in /  0 mm
15:16 38.0 °F /  3.3 °C 24.5 °F /  -4.2 °C 29.75 in /  1007.3 hPa NW 8.4 mph /  13.5 km/h 19.6 mph /  31.5 km/h 58 % 0.00 in /  0 mm
15:21 37.9 °F /  3.3 °C 24.4 °F /  -4.2 °C 29.75 in /  1007.3 hPa NNW 11.1 mph /  17.9 km/h 24.0 mph /  38.6 km/h 58 % 0.00 in /  0 mm
15:26 37.8 °F /  3.2 °C 24.7 °F /  -4.1 °C 29.75 in /  1007.3 hPa NW 12.0 mph /  19.3 km/h 20.7 mph /  33.3 km/h 59 % 0.00 in /  0 mm
15:31 37.8 °F /  3.2 °C 24.7 °F /  -4.1 °C 29.75 in /  1007.3 hPa NW 10.2 mph /  16.4 km/h 19.6 mph /  31.5 km/h 59 % 0.00 in /  0 mm
15:37 37.8 °F /  3.2 °C 25.1 °F /  -3.8 °C 29.75 in /  1007.3 hPa West 7.8 mph /  12.6 km/h 22.0 mph /  35.4 km/h 60 % 0.00 in /  0 mm
15:42 37.7 °F /  3.2 °C 24.6 °F /  -4.1 °C 29.75 in /  1007.3 hPa NNW 9.3 mph /  15 km/h 20.7 mph /  33.3 km/h 59 % 0.00 in /  0 mm
15:47 37.7 °F /  3.2 °C 24.6 °F /  -4.1 °C 29.75 in /  1007.3 hPa NNW 10.1 mph /  16.3 km/h 16.1 mph /  25.9 km/h 59 % 0.00 in /  0 mm
15:52 37.6 °F /  3.1 °C 24.6 °F /  -4.1 °C 29.75 in /  1007.3 hPa NW 15.5 mph /  24.9 km/h 23.0 mph /  37 km/h 59 % 0.00 in /  0 mm
15:57 37.5 °F /  3.1 °C 24.1 °F /  -4.4 °C 29.75 in /  1007.3 hPa NNE 10.8 mph /  17.4 km/h 21.9 mph /  35.2 km/h 58 % 0.00 in /  0 mm
16:02 37.5 °F /  3.1 °C 24.1 °F /  -4.4 °C 29.75 in /  1007.3 hPa North 12.6 mph /  20.3 km/h 18.4 mph /  29.6 km/h 58 % 0.00 in /  0 mm
16:07 37.4 °F /  3 °C 24.4 °F /  -4.2 °C 29.76 in /  1007.7 hPa WNW 12.7 mph /  20.4 km/h 16.1 mph /  25.9 km/h 59 % 0.00 in /  0 mm
16:12 37.4 °F /  3 °C 24.8 °F /  -4 °C 29.76 in /  1007.7 hPa WSW 10.1 mph /  16.3 km/h 16.1 mph /  25.9 km/h 60 % 0.00 in /  0 mm
16:17 37.3 °F /  2.9 °C 24.7 °F /  -4.1 °C 29.76 in /  1007.7 hPa NW 7.1 mph /  11.4 km/h 12.7 mph /  20.4 km/h 60 % 0.00 in /  0 mm
16:18 37.3 °F /  2.9 °C 24.7 °F /  -4.1 °C 29.77 in /  1008 hPa West 9.2 mph /  14.8 km/h 13.8 mph /  22.2 km/h 60 % 0.00 in /  0 mm
16:23 37.3 °F /  2.9 °C 24.7 °F /  -4.1 °C 29.77 in /  1008 hPa NW 9.8 mph /  15.8 km/h 23.0 mph /  37 km/h 60 % 0.00 in /  0 mm
16:28 37.2 °F /  2.9 °C 24.6 °F /  -4.1 °C 29.78 in /  1008.4 hPa North 7.8 mph /  12.6 km/h 15.0 mph /  24.1 km/h 60 % 0.00 in /  0 mm
16:33 37.1 °F /  2.8 °C 24.5 °F /  -4.2 °C 29.78 in /  1008.4 hPa West 9.7 mph /  15.6 km/h 16.1 mph /  25.9 km/h 60 % 0.00 in /  0 mm
16:38 37.0 °F /  2.8 °C 24.0 °F /  -4.4 °C 29.78 in /  1008.4 hPa NNW 7.8 mph /  12.6 km/h 18.4 mph /  29.6 km/h 59 % 0.00 in /  0 mm
16:43 36.9 °F /  2.7 °C 24.3 °F /  -4.3 °C 29.78 in /  1008.4 hPa NNW 8.1 mph /  13 km/h 16.1 mph /  25.9 km/h 60 % 0.00 in /  0 mm
16:48 36.8 °F /  2.7 °C 24.2 °F /  -4.3 °C 29.78 in /  1008.4 hPa North 9.8 mph /  15.8 km/h 23.0 mph /  37 km/h 60 % 0.00 in /  0 mm
16:53 36.8 °F /  2.7 °C 25.0 °F /  -3.9 °C 29.78 in /  1008.4 hPa WNW 6.5 mph /  10.5 km/h 16.1 mph /  25.9 km/h 62 % 0.00 in /  0 mm
16:58 36.7 °F /  2.6 °C 25.3 °F /  -3.7 °C 29.79 in /  1008.7 hPa NW 5.9 mph /  9.5 km/h 9.2 mph /  14.8 km/h 63 % 0.00 in /  0 mm
16:59 36.7 °F /  2.6 °C 25.3 °F /  -3.7 °C 29.78 in /  1008.4 hPa NNW 6.5 mph /  10.5 km/h 10.4 mph /  16.7 km/h 63 % 0.00 in /  0 mm
17:04 36.6 °F /  2.6 °C 24.4 °F /  -4.2 °C 29.79 in /  1008.7 hPa NNW 12.1 mph /  19.5 km/h 16.1 mph /  25.9 km/h 61 % 0.00 in /  0 mm
17:09 36.5 °F /  2.5 °C 24.7 °F /  -4.1 °C 29.79 in /  1008.7 hPa WNW 7.6 mph /  12.2 km/h 17.3 mph /  27.8 km/h 62 % 0.00 in /  0 mm
17:14 36.4 °F /  2.4 °C 24.2 °F /  -4.3 °C 29.79 in /  1008.7 hPa NNW 8.8 mph /  14.2 km/h 17.3 mph /  27.8 km/h 61 % 0.00 in /  0 mm
17:19 36.5 °F /  2.5 °C 24.3 °F /  -4.3 °C 29.79 in /  1008.7 hPa NNW 13.1 mph /  21.1 km/h 19.6 mph /  31.5 km/h 61 % 0.00 in /  0 mm
17:24 36.5 °F /  2.5 °C 23.1 °F /  -4.9 °C 29.80 in /  1009 hPa West 10.0 mph /  16.1 km/h 21.9 mph /  35.2 km/h 58 % 0.00 in /  0 mm
17:29 36.4 °F /  2.4 °C 24.2 °F /  -4.3 °C 29.80 in /  1009 hPa NNW 9.0 mph /  14.5 km/h 13.0 mph /  20.9 km/h 61 % 0.00 in /  0 mm
17:34 36.3 °F /  2.4 °C 23.7 °F /  -4.6 °C 29.80 in /  1009 hPa NNW 11.4 mph /  18.3 km/h 22.0 mph /  35.4 km/h 60 % 0.00 in /  0 mm
17:39 36.2 °F /  2.3 °C 23.2 °F /  -4.9 °C 29.81 in /  1009.4 hPa West 12.2 mph /  19.6 km/h 23.0 mph /  37 km/h 59 % 0.00 in /  0 mm
17:44 36.1 °F /  2.3 °C 23.1 °F /  -4.9 °C 29.82 in /  1009.7 hPa NNW 9.8 mph /  15.8 km/h 18.4 mph /  29.6 km/h 59 % 0.00 in /  0 mm
17:49 36.1 °F /  2.3 °C 23.9 °F /  -4.5 °C 29.82 in /  1009.7 hPa NW 9.8 mph /  15.8 km/h 20.7 mph /  33.3 km/h 61 % 0.00 in /  0 mm
17:54 36.0 °F /  2.2 °C 23.4 °F /  -4.8 °C 29.82 in /  1009.7 hPa WNW 9.1 mph /  14.6 km/h 16.0 mph /  25.7 km/h 60 % 0.00 in /  0 mm
17:59 35.9 °F /  2.2 °C 23.7 °F /  -4.6 °C 29.83 in /  1010 hPa West 10.0 mph /  16.1 km/h 18.4 mph /  29.6 km/h 61 % 0.00 in /  0 mm
18:04 35.8 °F /  2.1 °C 23.7 °F /  -4.6 °C 29.83 in /  1010 hPa WNW 7.7 mph /  12.4 km/h 18.4 mph /  29.6 km/h 61 % 0.00 in /  0 mm
18:09 35.7 °F /  2.1 °C 23.2 °F /  -4.9 °C 29.83 in /  1010 hPa NW 8.9 mph /  14.3 km/h 13.8 mph /  22.2 km/h 60 % 0.00 in /  0 mm
18:14 35.6 °F /  2 °C 23.5 °F /  -4.7 °C 29.83 in /  1010 hPa NNW 10.5 mph /  16.9 km/h 22.0 mph /  35.4 km/h 61 % 0.00 in /  0 mm
18:19 35.4 °F /  1.9 °C 23.3 °F /  -4.8 °C 29.84 in /  1010.4 hPa WNW 6.1 mph /  9.8 km/h 19.6 mph /  31.5 km/h 61 % 0.00 in /  0 mm
18:24 35.4 °F /  1.9 °C 23.3 °F /  -4.8 °C 29.84 in /  1010.4 hPa NNW 10.6 mph /  17.1 km/h 19.6 mph /  31.5 km/h 61 % 0.00 in /  0 mm
18:29 35.3 °F /  1.8 °C 22.8 °F /  -5.1 °C 29.84 in /  1010.4 hPa WNW 5.4 mph /  8.7 km/h 18.4 mph /  29.6 km/h 60 % 0.00 in /  0 mm
18:35 35.1 °F /  1.7 °C 23.0 °F /  -5 °C 29.85 in /  1010.7 hPa NW 8.9 mph /  14.3 km/h 15.0 mph /  24.1 km/h 61 % 0.00 in /  0 mm
18:40 35.0 °F /  1.7 °C 22.9 °F /  -5.1 °C 29.85 in /  1010.7 hPa NNW 8.1 mph /  13 km/h 15.0 mph /  24.1 km/h 61 % 0.00 in /  0 mm
18:45 34.9 °F /  1.6 °C 23.6 °F /  -4.7 °C 29.86 in /  1011.1 hPa NW 8.0 mph /  12.9 km/h 17.3 mph /  27.8 km/h 63 % 0.00 in /  0 mm
18:50 34.8 °F /  1.6 °C 22.3 °F /  -5.4 °C 29.87 in /  1011.4 hPa WNW 9.3 mph /  15 km/h 14.0 mph /  22.5 km/h 60 % 0.00 in /  0 mm
18:55 34.7 °F /  1.5 °C 22.2 °F /  -5.4 °C 29.87 in /  1011.4 hPa NW 10.7 mph /  17.2 km/h 20.7 mph /  33.3 km/h 60 % 0.00 in /  0 mm
19:00 34.6 °F /  1.4 °C 22.9 °F /  -5.1 °C 29.87 in /  1011.4 hPa NNW 6.1 mph /  9.8 km/h 12.0 mph /  19.3 km/h 62 % 0.00 in /  0 mm
19:05 34.5 °F /  1.4 °C 22.8 °F /  -5.1 °C 29.86 in /  1011.1 hPa NW 9.8 mph /  15.8 km/h 19.6 mph /  31.5 km/h 62 % 0.00 in /  0 mm
19:10 34.4 °F /  1.3 °C 22.7 °F /  -5.2 °C 29.86 in /  1011.1 hPa NW 9.3 mph /  15 km/h 17.3 mph /  27.8 km/h 62 % 0.00 in /  0 mm
19:15 34.2 °F /  1.2 °C 22.5 °F /  -5.3 °C 29.86 in /  1011.1 hPa NNW 9.8 mph /  15.8 km/h 13.8 mph /  22.2 km/h 62 % 0.00 in /  0 mm
19:20 34.1 °F /  1.2 °C 22.8 °F /  -5.1 °C 29.86 in /  1011.1 hPa North 6.7 mph /  10.8 km/h 16.1 mph /  25.9 km/h 63 % 0.00 in /  0 mm
19:25 34.0 °F /  1.1 °C 22.7 °F /  -5.2 °C 29.87 in /  1011.4 hPa NW 7.0 mph /  11.3 km/h 15.0 mph /  24.1 km/h 63 % 0.00 in /  0 mm
19:30 34.0 °F /  1.1 °C 23.5 °F /  -4.7 °C 29.87 in /  1011.4 hPa WNW 7.4 mph /  11.9 km/h 10.4 mph /  16.7 km/h 65 % 0.00 in /  0 mm
19:35 33.9 °F /  1.1 °C 23.0 °F /  -5 °C 29.88 in /  1011.7 hPa NNW 6.2 mph /  10 km/h 15.0 mph /  24.1 km/h 64 % 0.00 in /  0 mm
19:40 33.8 °F /  1 °C 22.5 °F /  -5.3 °C 29.87 in /  1011.4 hPa NNW 7.6 mph /  12.2 km/h 11.0 mph /  17.7 km/h 63 % 0.00 in /  0 mm
19:45 33.7 °F /  0.9 °C 22.4 °F /  -5.3 °C 29.87 in /  1011.4 hPa NNW 6.1 mph /  9.8 km/h 10.4 mph /  16.7 km/h 63 % 0.00 in /  0 mm
19:50 33.6 °F /  0.9 °C 22.7 °F /  -5.2 °C 29.88 in /  1011.7 hPa North 6.1 mph /  9.8 km/h 11.5 mph /  18.5 km/h 64 % 0.00 in /  0 mm
19:55 33.5 °F /  0.8 °C 22.6 °F /  -5.2 °C 29.88 in /  1011.7 hPa NW 6.9 mph /  11.1 km/h 13.0 mph /  20.9 km/h 64 % 0.00 in /  0 mm
20:01 33.4 °F /  0.8 °C 22.5 °F /  -5.3 °C 29.87 in /  1011.4 hPa NW 7.0 mph /  11.3 km/h 10.4 mph /  16.7 km/h 64 % 0.00 in /  0 mm
20:06 33.3 °F /  0.7 °C 22.8 °F /  -5.1 °C 29.87 in /  1011.4 hPa NW 6.3 mph /  10.1 km/h 10.4 mph /  16.7 km/h 65 % 0.00 in /  0 mm
20:11 33.2 °F /  0.7 °C 22.3 °F /  -5.4 °C 29.88 in /  1011.7 hPa NNW 5.9 mph /  9.5 km/h 12.0 mph /  19.3 km/h 64 % 0.00 in /  0 mm
20:16 33.1 °F /  0.6 °C 22.2 °F /  -5.4 °C 29.88 in /  1011.7 hPa WNW 6.9 mph /  11.1 km/h 12.0 mph /  19.3 km/h 64 % 0.00 in /  0 mm
20:21 33.1 °F /  0.6 °C 22.2 °F /  -5.4 °C 29.88 in /  1011.7 hPa NNW 7.4 mph /  11.9 km/h 14.0 mph /  22.5 km/h 64 % 0.00 in /  0 mm
20:26 33.0 °F /  0.6 °C 22.1 °F /  -5.5 °C 29.88 in /  1011.7 hPa NNW 6.1 mph /  9.8 km/h 18.4 mph /  29.6 km/h 64 % 0.00 in /  0 mm
20:31 32.9 °F /  0.5 °C 22.4 °F /  -5.3 °C 29.88 in /  1011.7 hPa NNW 8.8 mph /  14.2 km/h 19.6 mph /  31.5 km/h 65 % 0.00 in /  0 mm
20:36 32.9 °F /  0.5 °C 22.8 °F /  -5.1 °C 29.88 in /  1011.7 hPa WNW 5.5 mph /  8.9 km/h 11.5 mph /  18.5 km/h 66 % 0.00 in /  0 mm
20:41 32.8 °F /  0.4 °C 22.7 °F /  -5.2 °C 29.89 in /  1012.1 hPa WNW 5.2 mph /  8.4 km/h 6.9 mph /  11.1 km/h 66 % 0.00 in /  0 mm
20:46 32.7 °F /  0.4 °C 22.6 °F /  -5.2 °C 29.89 in /  1012.1 hPa NNW 6.6 mph /  10.6 km/h 10.4 mph /  16.7 km/h 66 % 0.00 in /  0 mm
20:51 32.7 °F /  0.4 °C 22.6 °F /  -5.2 °C 29.90 in /  1012.4 hPa NW 2.8 mph /  4.5 km/h 6.9 mph /  11.1 km/h 66 % 0.00 in /  0 mm
20:56 32.6 °F /  0.3 °C 23.2 °F /  -4.9 °C 29.90 in /  1012.4 hPa NW 3.7 mph /  6 km/h 4.0 mph /  6.4 km/h 68 % 0.00 in /  0 mm
21:01 32.6 °F /  0.3 °C 23.2 °F /  -4.9 °C 29.90 in /  1012.4 hPa NNW 2.3 mph /  3.7 km/h 3.5 mph /  5.6 km/h 68 % 0.00 in /  0 mm
21:06 32.5 °F /  0.3 °C 23.1 °F /  -4.9 °C 29.90 in /  1012.4 hPa NNW 3.0 mph /  4.8 km/h 5.8 mph /  9.3 km/h 68 % 0.00 in /  0 mm
21:11 32.3 °F /  0.2 °C 22.6 °F /  -5.2 °C 29.91 in /  1012.8 hPa North 3.5 mph /  5.6 km/h 8.1 mph /  13 km/h 67 % 0.00 in /  0 mm
21:16 32.1 °F /  0.1 °C 22.4 °F /  -5.3 °C 29.90 in /  1012.4 hPa North 5.6 mph /  9 km/h 11.5 mph /  18.5 km/h 67 % 0.00 in /  0 mm
21:21 32.0 °F /  0 °C 22.6 °F /  -5.2 °C 29.91 in /  1012.8 hPa North 4.0 mph /  6.4 km/h 11.5 mph /  18.5 km/h 68 % 0.00 in /  0 mm
21:26 31.8 °F /  -0.1 °C 22.4 °F /  -5.3 °C 29.91 in /  1012.8 hPa NNW 5.2 mph /  8.4 km/h 11.5 mph /  18.5 km/h 68 % 0.00 in /  0 mm
21:31 31.7 °F /  -0.2 °C 22.3 °F /  -5.4 °C 29.91 in /  1012.8 hPa NW 5.8 mph /  9.3 km/h 9.2 mph /  14.8 km/h 68 % 0.00 in /  0 mm
21:36 31.6 °F /  -0.2 °C 22.2 °F /  -5.4 °C 29.92 in /  1013.1 hPa NNW 6.2 mph /  10 km/h 11.5 mph /  18.5 km/h 68 % 0.00 in /  0 mm
21:42 31.5 °F /  -0.3 °C 21.8 °F /  -5.7 °C 29.92 in /  1013.1 hPa NNW 5.0 mph /  8 km/h 8.1 mph /  13 km/h 67 % 0.00 in /  0 mm
21:47 31.4 °F /  -0.3 °C 21.7 °F /  -5.7 °C 29.92 in /  1013.1 hPa North 2.5 mph /  4 km/h 6.9 mph /  11.1 km/h 67 % 0.00 in /  0 mm
21:52 31.2 °F /  -0.4 °C 21.9 °F /  -5.6 °C 29.92 in /  1013.1 hPa WNW 6.4 mph /  10.3 km/h 10.4 mph /  16.7 km/h 68 % 0.00 in /  0 mm
21:57 31.2 °F /  -0.4 °C 21.9 °F /  -5.6 °C 29.92 in /  1013.1 hPa NNE 3.9 mph /  6.3 km/h 8.1 mph /  13 km/h 68 % 0.00 in /  0 mm
22:02 31.0 °F /  -0.6 °C 21.7 °F /  -5.7 °C 29.92 in /  1013.1 hPa North 5.5 mph /  8.9 km/h 8.1 mph /  13 km/h 68 % 0.00 in /  0 mm
22:07 30.9 °F /  -0.6 °C 21.6 °F /  -5.8 °C 29.92 in /  1013.1 hPa NW 5.8 mph /  9.3 km/h 8.1 mph /  13 km/h 68 % 0.00 in /  0 mm
22:12 30.9 °F /  -0.6 °C 21.6 °F /  -5.8 °C 29.92 in /  1013.1 hPa NNW 3.2 mph /  5.1 km/h 8.1 mph /  13 km/h 68 % 0.00 in /  0 mm
22:17 30.8 °F /  -0.7 °C 21.5 °F /  -5.8 °C 29.92 in /  1013.1 hPa NNW 3.6 mph /  5.8 km/h 4.6 mph /  7.4 km/h 68 % 0.00 in /  0 mm
22:22 30.6 °F /  -0.8 °C 21.6 °F /  -5.8 °C 29.92 in /  1013.1 hPa NNW 2.6 mph /  4.2 km/h 6.9 mph /  11.1 km/h 69 % 0.00 in /  0 mm
22:27 30.6 °F /  -0.8 °C 21.6 °F /  -5.8 °C 29.92 in /  1013.1 hPa NNW 4.5 mph /  7.2 km/h 6.9 mph /  11.1 km/h 69 % 0.00 in /  0 mm
22:32 30.5 °F /  -0.8 °C 21.5 °F /  -5.8 °C 29.93 in /  1013.4 hPa WNW 1.6 mph /  2.6 km/h 4.6 mph /  7.4 km/h 69 % 0.00 in /  0 mm
22:37 30.4 °F /  -0.9 °C 21.4 °F /  -5.9 °C 29.93 in /  1013.4 hPa NNE 2.9 mph /  4.7 km/h 6.0 mph /  9.7 km/h 69 % 0.00 in /  0 mm
22:42 30.3 °F /  -0.9 °C 21.3 °F /  -5.9 °C 29.93 in /  1013.4 hPa North 3.5 mph /  5.6 km/h 5.8 mph /  9.3 km/h 69 % 0.00 in /  0 mm
22:47 30.3 °F /  -0.9 °C 21.3 °F /  -5.9 °C 29.93 in /  1013.4 hPa NW 4.6 mph /  7.4 km/h 6.0 mph /  9.7 km/h 69 % 0.00 in /  0 mm
22:52 30.2 °F /  -1 °C 21.6 °F /  -5.8 °C 29.93 in /  1013.4 hPa North 4.4 mph /  7.1 km/h 10.4 mph /  16.7 km/h 70 % 0.00 in /  0 mm
22:57 30.2 °F /  -1 °C 21.2 °F /  -6 °C 29.93 in /  1013.4 hPa NNW 3.1 mph /  5 km/h 7.0 mph /  11.3 km/h 69 % 0.00 in /  0 mm
23:02 30.2 °F /  -1 °C 21.6 °F /  -5.8 °C 29.93 in /  1013.4 hPa NNW 4.4 mph /  7.1 km/h 8.1 mph /  13 km/h 70 % 0.00 in /  0 mm
23:08 30.1 °F /  -1.1 °C 21.5 °F /  -5.8 °C 29.93 in /  1013.4 hPa WNW 1.3 mph /  2.1 km/h 5.0 mph /  8 km/h 70 % 0.00 in /  0 mm
23:13 30.1 °F /  -1.1 °C 21.5 °F /  -5.8 °C 29.93 in /  1013.4 hPa NNW 2.4 mph /  3.9 km/h 4.6 mph /  7.4 km/h 70 % 0.00 in /  0 mm
23:18 30.1 °F /  -1.1 °C 21.5 °F /  -5.8 °C 29.93 in /  1013.4 hPa NNW 4.1 mph /  6.6 km/h 6.9 mph /  11.1 km/h 70 % 0.00 in /  0 mm
23:23 30.0 °F /  -1.1 °C 21.4 °F /  -5.9 °C 29.93 in /  1013.4 hPa North 4.0 mph /  6.4 km/h 5.8 mph /  9.3 km/h 70 % 0.00 in /  0 mm
23:28 29.9 °F /  -1.2 °C 21.6 °F /  -5.8 °C 29.93 in /  1013.4 hPa NW 0.8 mph /  1.3 km/h 3.0 mph /  4.8 km/h 71 % 0.00 in /  0 mm
23:33 29.8 °F /  -1.2 °C 21.5 °F /  -5.8 °C 29.94 in /  1013.8 hPa NNW 3.8 mph /  6.1 km/h 6.9 mph /  11.1 km/h 71 % 0.00 in /  0 mm
23:38 29.8 °F /  -1.2 °C 21.5 °F /  -5.8 °C 29.93 in /  1013.4 hPa NNW 4.5 mph /  7.2 km/h 10.0 mph /  16.1 km/h 71 % 0.00 in /  0 mm
23:43 29.8 °F /  -1.2 °C 21.5 °F /  -5.8 °C 29.94 in /  1013.8 hPa NNW 1.1 mph /  1.8 km/h 3.5 mph /  5.6 km/h 71 % 0.00 in /  0 mm
23:48 29.7 °F /  -1.3 °C 21.4 °F /  -5.9 °C 29.94 in /  1013.8 hPa NW 3.7 mph /  6 km/h 6.9 mph /  11.1 km/h 71 % 0.00 in /  0 mm
23:53 29.7 °F /  -1.3 °C 21.4 °F /  -5.9 °C 29.94 in /  1013.8 hPa NNW 4.3 mph /  6.9 km/h 7.0 mph /  11.3 km/h 71 % 0.00 in /  0 mm
23:58 29.6 °F /  -1.3 °C 21.3 °F /  -5.9 °C 29.93 in /  1013.4 hPa NNW 4.8 mph /  7.7 km/h 6.0 mph /  9.7 km/h 71 % 0.00 in /  0 mm
Crab Meadow Weather
Compliments of Weather Underground - 3 mb

Script developed by  Jim McMurry - jmcmurry@mwt.net Adapted for the template by  Wim van der Kuil - Leuven-Template.eu

Recycling: We use over 80,000,000,000 aluminum soda cans every year.